Parkrose, Oregon
Current Conditions -  °F | °C
As of 9:53 AM on Thursday 30 Oct 2014 (Local Time) from KTTD Reporting Station
Overcast Overcast  
Wind Chill: 58°   Ceiling: 9000
Heat Index: 58°   Visibility: 10mi
Dew Point: 52°   Wind: 18mph
Humidity: 81%   Direction: 80°E
Pressure: 29.86"   Gusts: 26mph
Location:  45.5423°N, 122.5°W
Report Text: KTTD 301653Z 08016G23KT 10SM FEW050 SCT070 OVC090 14/11 A2986 RMK AO2 RAB18E44 SLP110 P0002 T01440111
Loading
Personal Weather Stations






























Interactive Weather Map
Tropical Storm Tracking
New forecast layout! Learn more

10-Day Weather Forecast

Advertisements
Track Severe Weather on mobile